KDUA/DUA METAR and TAF weather

Enter ICAO airport designator
Station Type Date Time Source
KDUA METAR 2019/10/16 19:36 UTC NOAA

KDUA 161936Z AUTO 34007KT 10SM CLR 20/03 A3019 RMK AO2


Station Type Date Time Source
KDUA Decoded METAR 2019/10/16 19:36 UTC NOAA

Durant, Eaker Field Airport, OK, United States (KDUA) 33-56-32N 096-23-40W
Oct 16, 2019 - 03:36 PM EDT / 2019.10.16 1936 UTC
Wind: from the NNW (340 degrees) at 8 MPH (7 KT):0
Visibility: 10 mile(s):0
Sky conditions: clear
Temperature: 68 F (20 C)
Dew Point: 37 F (3 C)
Relative Humidity: 32%
Pressure (altimeter): 30.19 in. Hg (1022 hPa)
ob: KDUA 161936Z AUTO 34007KT 10SM CLR 20/03 A3019 RMK AO2
cycle: 19

Station Type Date Time Source
KDUA TAF UTC NOAA

Error!

Example: see airport list